
Distance (Route):
Temperature : -51.5°C
Humidity : 12.1%
Pressure : 58.2hPa| Receiver | Date | Latitude | Longitude | Direction | Speed | Altitude | Climb | Temperature | Humidity | Pressure | Voltage | Killtimer | Uptime | BKT | XDATA |
|---|---|---|---|---|---|---|---|---|---|---|---|---|---|---|---|
| AA1-15 | 2026-09-06 01:13:25 | 61.18942 | 44.20174 | 0° | 0km/h | 159087m | 0m/s | -51.5°C | 12.1% | 58.2hPa | 2.1V | 00:00:00 | 00:00:00 | 00:00:00 | |
| AA1-15 | 2026-09-06 01:13:03 | 61.18942 | 44.20174 | 0° | 0km/h | 159087m | 0m/s | -51°C | 12.1% | 55.8hPa | 2.1V | 00:00:00 | 00:00:00 | 00:00:00 | |
| AA1-15 | 2026-09-06 01:12:47 | 61.18942 | 44.20174 | 0° | 0km/h | 159087m | 0m/s | -51.5°C | 12.4% | 53.8hPa | 2.1V | 00:00:00 | 00:00:00 | 00:00:00 | |
| AA1-15 | 2026-09-06 01:12:36 | 61.18942 | 44.20174 | 0° | 0km/h | 159087m | 0m/s | -50.9°C | 12.9% | 52.5hPa | 2.1V | 00:00:00 | 00:00:00 | 00:00:00 | |
| AA1-15 | 2026-09-06 01:12:19 | 61.18942 | 44.20174 | 0° | 0km/h | 159087m | 0m/s | -50.7°C | 13.2% | 50.1hPa | 2.1V | 00:00:00 | 00:00:00 | 00:00:00 | |
| AA1-15 | 2026-09-06 01:11:21 | 61.18942 | 44.20174 | 0° | 0km/h | 159087m | 0m/s | -51.3°C | 14.3% | 42.6hPa | 2.2V | 00:00:00 | 00:00:00 | 00:00:00 | |
| AA1-15 | 2026-09-06 01:11:10 | 61.18942 | 44.20174 | 0° | 0km/h | 159087m | 0m/s | -51.3°C | 14.4% | 41.5hPa | 2.2V | 00:00:00 | 00:00:00 | 00:00:00 | |
| AA1-15 | 2026-09-06 01:11:00 | 61.18942 | 44.20174 | 0° | 0km/h | 159087m | 0m/s | -51.7°C | 14.3% | 40.6hPa | 2.2V | 00:00:00 | 00:00:00 | 00:00:00 | |
| AA1-15 | 2026-09-06 01:10:46 | 61.18942 | 44.20174 | 0° | 0km/h | 159087m | 0m/s | -52.2°C | 14.6% | 39.3hPa | 2.2V | 00:00:00 | 00:00:00 | 00:00:00 | |
| AA1-15 | 2026-09-06 01:10:22 | 61.18942 | 44.20174 | 0° | 0km/h | 159087m | 0m/s | -52.4°C | 15.1% | 37.2hPa | 2.2V | 00:00:00 | 00:00:00 | 00:00:00 | |
| AA1-15 | 2026-09-06 01:09:59 | 58.01855 | 17.80330 | 0° | 0km/h | 159087m | 0m/s | -51.5°C | 15.5% | 35.1hPa | 2.2V | 00:00:00 | 00:00:00 | 00:00:00 | |
| AA1-15 | 2026-09-06 01:08:04 | 58.01855 | 17.80330 | 0° | 0km/h | 159087m | 0m/s | -51.2°C | 18% | 25.8hPa | 2.2V | 00:00:00 | 00:00:00 | 00:00:00 | |
| AA1-15 | 2026-09-06 01:05:35 | 54.92569 | 20.16503 | 266° | 102km/h | 159087m | 9.1m/s | -48.5°C | 27% | 16hPa | 2.2V | 00:00:00 | 00:00:00 | 00:00:00 | |
| AA1-15 | 2026-09-06 01:05:25 | 54.92587 | 20.16947 | 264° | 95km/h | 1469m | 8.7m/s | -48.3°C | 26.7% | 15.5hPa | 2.2V | 00:00:00 | 00:00:00 | 00:00:00 | |
| AA1-15 | 2026-09-06 01:05:19 | 54.92611 | 20.17183 | 252° | 97km/h | 1396m | 11.2m/s | -48.7°C | 26.3% | 15.2hPa | 2.2V | 00:00:00 | 00:00:00 | 00:00:00 | |
| AA1-15 | 2026-09-06 01:05:15 | 54.92644 | 20.17332 | 249° | 97km/h | 1350m | 7.7m/s | -48.9°C | 26% | 14.9hPa | 2.2V | 00:00:00 | 00:00:00 | 00:00:00 | |
| AA1-15 | 2026-09-06 01:05:13 | 54.92665 | 20.17411 | 243° | 97km/h | 1331m | 8.8m/s | -48.9°C | 26% | 14.9hPa | 2.2V | 00:00:00 | 00:00:00 | 00:00:00 | |
| AA1-15 | 2026-09-06 01:05:12 | 54.92677 | 20.17453 | 240° | 99km/h | 1323m | 12.4m/s | -48.8°C | 26% | 14.8hPa | 2.2V | 00:00:00 | 00:00:00 | 00:00:00 | |
| AA1-15 | 2026-09-06 01:05:11 | 54.92688 | 20.17492 | 241° | 93km/h | 1310m | 13.9m/s | -48.8°C | 25.9% | 14.8hPa | 2.2V | 00:00:00 | 00:00:00 | 00:00:00 | |
| AA1-15 | 2026-09-06 01:05:08 | 54.92728 | 20.17581 | 236° | 97km/h | 1276m | 8m/s | -48.9°C | 25.6% | 14.7hPa | 2.2V | 00:00:00 | 00:00:00 | 00:00:00 | |
| AA1-15 | 2026-09-06 01:05:05 | 54.92774 | 20.17671 | 229° | 97km/h | 1238m | 8.6m/s | -48.9°C | 25.4% | 14.5hPa | 2.2V | 00:00:00 | 00:00:00 | 00:00:00 | |
| AA1-15 | 2026-09-06 01:05:04 | 54.92790 | 20.17699 | 230° | 95km/h | 1230m | 9.4m/s | -48.9°C | 25.4% | 14.5hPa | 2.2V | 00:00:00 | 00:00:00 | 00:00:00 | |
| AA1-15 | 2026-09-06 01:05:02 | 54.92826 | 20.17747 | 225° | 95km/h | 1206m | 9.1m/s | -48.7°C | 25.3% | 14.4hPa | 2.2V | 00:00:00 | 00:00:00 | 00:00:00 | |
| AA1-15 | 2026-09-06 01:04:58 | 54.92899 | 20.17868 | 220° | 97km/h | 1171m | 6.7m/s | -48.4°C | 25.7% | 14.2hPa | 2.2V | 00:00:00 | 00:00:00 | 00:00:00 | |
| AA1-15 | 2026-09-06 01:04:57 | 54.92918 | 20.17898 | 219° | 95km/h | 1171m | 8.2m/s | -48.4°C | 25.9% | 14.2hPa | 2.2V | 00:00:00 | 00:00:00 | 00:00:00 | |
| AA1-15 | 2026-09-06 01:04:56 | 54.92937 | 20.17936 | 218° | 91km/h | 1184m | 5.5m/s | -48.4°C | 26% | 14.2hPa | 2.2V | 00:00:00 | 00:00:00 | 00:00:00 | |
| AA1-15 | 2026-09-06 01:04:54 | 54.92981 | 20.18076 | 218° | 99km/h | 1283m | 6m/s | -48.4°C | 26.3% | 14.1hPa | 2.2V | 00:00:00 | 00:00:00 | 00:00:00 | |
| AA1-15 | 2026-09-06 01:04:52 | 54.93029 | 20.18114 | 208° | 95km/h | 1264m | 11.1m/s | -48.2°C | 26.8% | 14hPa | 2.2V | 00:00:00 | 00:00:00 | 00:00:00 | |
| AA1-15 | 2026-09-06 01:04:50 | 54.93068 | 20.18154 | 205° | 99km/h | 1255m | 11.5m/s | -48.3°C | 27.6% | 13.9hPa | 2.2V | 00:00:00 | 00:00:00 | 00:00:00 | |
| AA1-15 | 2026-09-06 01:04:48 | 54.93096 | 20.18177 | 203° | 95km/h | 1246m | 8.7m/s | -48.3°C | 28.2% | 13.9hPa | 2.2V | 00:00:00 | 00:00:00 | 00:00:00 | |
| AA1-15 | 2026-09-06 01:04:45 | 54.93161 | 20.18247 | 199° | 97km/h | 1248m | 7.8m/s | -48.2°C | 28.4% | 13.8hPa | 2.2V | 00:00:00 | 00:00:00 | 00:00:00 | |
| AA1-15 | 2026-09-06 01:04:44 | 54.93181 | 20.18267 | 198° | 95km/h | 1258m | 7.9m/s | -48.3°C | 28.8% | 13.8hPa | 2.2V | 00:00:00 | 00:00:00 | 00:00:00 | |
| AA1-15 | 2026-09-06 01:04:42 | 54.93223 | 20.18298 | 195° | 99km/h | 1269m | 8.6m/s | -48.4°C | 28.7% | 13.9hPa | 2.2V | 00:00:00 | 00:00:00 | 00:00:00 | |
| AA1-15 | 2026-09-06 01:04:41 | 54.93249 | 20.18309 | 193° | 97km/h | 1259m | 9.9m/s | -48.4°C | 28.6% | 13.9hPa | 2.2V | 00:00:00 | 00:00:00 | 00:00:00 | |
| AA1-15 | 2026-09-06 01:04:40 | 54.93274 | 20.18314 | 192° | 93km/h | 1245m | 11.2m/s | -48.4°C | 28.8% | 13.9hPa | 2.2V | 00:00:00 | 00:00:00 | 00:00:00 | |
| AA1-15 | 2026-09-06 01:04:38 | 54.93336 | 20.18293 | 186° | 99km/h | 1205m | 9.8m/s | -48.4°C | 28.7% | 14hPa | 2.2V | 00:00:00 | 00:00:00 | 00:00:00 | |
| AA1-15 | 2026-09-06 01:04:36 | 54.93389 | 20.18284 | 180° | 102km/h | 1180m | 11.2m/s | -48.5°C | 28.5% | 14hPa | 2.2V | 00:00:00 | 00:00:00 | 00:00:00 | |
| AA1-15 | 2026-09-06 01:04:35 | 54.93413 | 20.18284 | 182° | 99km/h | 1175m | 9.7m/s | -48.5°C | 28.5% | 14hPa | 2.2V | 00:00:00 | 00:00:00 | 00:00:00 | |
| AA1-15 | 2026-09-06 01:04:33 | 54.93457 | 20.18295 | 182° | 95km/h | 1181m | 7.5m/s | -48.6°C | 28.2% | 14hPa | 2.2V | 00:00:00 | 00:00:00 | 00:00:00 | |
| AA1-15 | 2026-09-06 01:04:31 | 54.93504 | 20.18299 | 180° | 95km/h | 1165m | 6.9m/s | -48.6°C | 27.9% | 14.1hPa | 2.2V | 00:00:00 | 00:00:00 | 00:00:00 | |
| AA1-15 | 2026-09-06 01:04:30 | 54.93529 | 20.18299 | 176° | 95km/h | 1153m | 6.3m/s | -48.6°C | 27.9% | 14.1hPa | 2.2V | 00:00:00 | 00:00:00 | 00:00:00 | |
| AA1-15 | 2026-09-06 01:04:28 | 54.93577 | 20.18298 | 174° | 100km/h | 1141m | 8.3m/s | -48.5°C | 27.5% | 14.1hPa | 2.2V | 00:00:00 | 00:00:00 | 00:00:00 | |
| AA1-15 | 2026-09-06 01:04:26 | 54.93626 | 20.18292 | 171° | 97km/h | 1146m | 8.2m/s | -48.5°C | 27.1% | 14.1hPa | 2.2V | 00:00:00 | 00:00:00 | 00:00:00 | |
| AA1-15 | 2026-09-06 01:04:24 | 54.93681 | 20.18270 | 164° | 95km/h | 1140m | 9.2m/s | -48.5°C | 26.8% | 14.1hPa | 2.2V | 00:00:00 | 00:00:00 | 00:00:00 | |
| AA1-15 | 2026-09-06 01:04:23 | 54.93704 | 20.18256 | 163° | 95km/h | 1131m | 8.8m/s | -48.5°C | 26.9% | 14.2hPa | 2.2V | 00:00:00 | 00:00:00 | 00:00:00 | |
| AA1-15 | 2026-09-06 01:04:21 | 54.93746 | 20.18228 | 160° | 99km/h | 1108m | 8.8m/s | -48.5°C | 26.9% | 14.2hPa | 2.2V | 00:00:00 | 00:00:00 | 00:00:00 | |
| AA1-15 | 2026-09-06 01:04:19 | 54.93798 | 20.18199 | 160° | 97km/h | 1087m | 8m/s | -48.6°C | 26.6% | 14.2hPa | 2.2V | 00:00:00 | 00:00:00 | 00:00:00 | |
| AA1-15 | 2026-09-06 01:04:17 | 54.93845 | 20.18168 | 156° | 95km/h | 1063m | 8.8m/s | -48.6°C | 26.7% | 14.2hPa | 2.2V | 00:00:00 | 00:00:00 | 00:00:00 | |
| AA1-15 | 2026-09-06 01:04:16 | 54.93865 | 20.18151 | 154° | 100km/h | 1049m | 10.3m/s | -48.6°C | 26.8% | 14.2hPa | 2.2V | 00:00:00 | 00:00:00 | 00:00:00 | |
| AA1-15 | 2026-09-06 01:04:14 | 54.93907 | 20.18109 | 152° | 93km/h | 1020m | 8.4m/s | -48.7°C | 26.6% | 14.2hPa | 2.2V | 00:00:00 | 00:00:00 | 00:00:00 | |
| AA1-15 | 2026-09-06 01:04:12 | 54.93949 | 20.18065 | 146° | 95km/h | 998m | 9.1m/s | -48.7°C | 26.5% | 14.3hPa | 2.2V | 00:00:00 | 00:00:00 | 00:00:00 | |
| AA1-15 | 2026-09-06 01:04:10 | 54.93989 | 20.18011 | 144° | 99km/h | 974m | 8m/s | -48.7°C | 27% | 14.3hPa | 2.2V | 00:00:00 | 00:00:00 | 00:00:00 | |
| AA1-15 | 2026-09-06 01:04:09 | 54.94008 | 20.17985 | 141° | 95km/h | 963m | 9.3m/s | -48.7°C | 27.4% | 14.3hPa | 2.2V | 00:00:00 | 00:00:00 | 00:00:00 | |
| AA1-15 | 2026-09-06 01:04:07 | 54.94042 | 20.17932 | 141° | 97km/h | 943m | 8.4m/s | -48.8°C | 27.5% | 14.3hPa | 2.2V | 00:00:00 | 00:00:00 | 00:00:00 | |
| AA1-15 | 2026-09-06 01:04:05 | 54.94067 | 20.17875 | 134° | 93km/h | 925m | 8.2m/s | -48.8°C | 27.6% | 14.4hPa | 2.2V | 00:00:00 | 00:00:00 | 00:00:00 | |
| AA1-15 | 2026-09-06 01:04:04 | 54.94079 | 20.17846 | 134° | 95km/h | 919m | 8.2m/s | -48.8°C | 27.7% | 14.4hPa | 2.2V | 00:00:00 | 00:00:00 | 00:00:00 | |
| AA1-15 | 2026-09-06 01:04:03 | 54.94096 | 20.17815 | 133° | 99km/h | 907m | 8.6m/s | -48.8°C | 28.1% | 14.4hPa | 2.2V | 00:00:00 | 00:00:00 | 00:00:00 | |
| AA1-15 | 2026-09-06 01:04:02 | 54.94113 | 20.17783 | 132° | 95km/h | 896m | 8.7m/s | -48.8°C | 28.7% | 14.4hPa | 2.2V | 00:00:00 | 00:00:00 | 00:00:00 | |
| AA1-15 | 2026-09-06 01:04:01 | 54.94131 | 20.17753 | 131° | 97km/h | 884m | 8.3m/s | -48.9°C | 29.3% | 14.4hPa | 2.2V | 00:00:00 | 00:00:00 | 00:00:00 | |
| AA1-15 | 2026-09-06 01:03:59 | 54.94163 | 20.17690 | 129° | 93km/h | 856m | 7.8m/s | -48.9°C | 29.8% | 14.5hPa | 2.2V | 00:00:00 | 00:00:00 | 00:00:00 | |
| AA1-15 | 2026-09-06 01:03:57 | 54.94190 | 20.17625 | 123° | 95km/h | 831m | 8.3m/s | -48.9°C | 30.1% | 14.4hPa | 2.2V | 00:00:00 | 00:00:00 | 00:00:00 | |
| AA1-15 | 2026-09-06 01:03:56 | 54.94202 | 20.17590 | 121° | 95km/h | 821m | 8m/s | -48.9°C | 30.5% | 14.5hPa | 2.2V | 00:00:00 | 00:00:00 | 00:00:00 | |
| AA1-15 | 2026-09-06 01:03:54 | 54.94224 | 20.17517 | 119° | 97km/h | 798m | 8.2m/s | -48.9°C | 31.4% | 14.5hPa | 2.2V | 00:00:00 | 00:00:00 | 00:00:00 | |
| AA1-15 | 2026-09-06 01:03:51 | 54.94257 | 20.17406 | 118° | 97km/h | 751m | 8.7m/s | -48.9°C | 31.8% | 14.5hPa | 2.2V | 00:00:00 | 00:00:00 | 00:00:00 | |
| AA1-15 | 2026-09-06 01:03:49 | 54.94277 | 20.17327 | 112° | 95km/h | 724m | 8.3m/s | -48.9°C | 32.3% | 14.6hPa | 2.2V | 00:00:00 | 00:00:00 | 00:00:00 | |
| AA1-15 | 2026-09-06 01:03:48 | 54.94286 | 20.17284 | 109° | 97km/h | 712m | 8.3m/s | -48.8°C | 32.4% | 14.6hPa | 2.2V | 00:00:00 | 00:00:00 | 00:00:00 | |
| AA1-15 | 2026-09-06 01:03:46 | 54.94301 | 20.17204 | 107° | 95km/h | 692m | 7.5m/s | -48.8°C | 32.7% | 14.6hPa | 2.2V | 00:00:00 | 00:00:00 | 00:00:00 | |
| AA1-15 | 2026-09-06 01:03:45 | 54.94307 | 20.17161 | 103° | 97km/h | 682m | 8.2m/s | -48.8°C | 32.9% | 14.6hPa | 2.2V | 00:00:00 | 00:00:00 | 00:00:00 | |
| AA1-15 | 2026-09-06 01:03:43 | 54.94317 | 20.17082 | 102° | 95km/h | 662m | 8.6m/s | -48.8°C | 33.4% | 14.7hPa | 2.2V | 00:00:00 | 00:00:00 | 00:00:00 | |
| AA1-15 | 2026-09-06 01:03:41 | 54.94326 | 20.16998 | 99° | 97km/h | 641m | 8.4m/s | -48.8°C | 33.6% | 14.7hPa | 2.2V | 00:00:00 | 00:00:00 | 00:00:00 | |
| AA1-15 | 2026-09-06 01:03:39 | 54.94333 | 20.16905 | 97° | 97km/h | 629m | 8.1m/s | -48.8°C | 34.2% | 14.7hPa | 2.2V | 00:00:00 | 00:00:00 | 00:00:00 | |
| AA1-15 | 2026-09-06 01:03:38 | 54.94337 | 20.16856 | 92° | 95km/h | 627m | 7.5m/s | -48.8°C | 34.2% | 14.7hPa | 2.2V | 00:00:00 | 00:00:00 | 00:00:00 | |
| AA1-15 | 2026-09-06 01:03:37 | 54.94339 | 20.16810 | 93° | 95km/h | 620m | 8.2m/s | -48.7°C | 34.4% | 14.7hPa | 2.2V | 00:00:00 | 00:00:00 | 00:00:00 | |
| AA1-15 | 2026-09-06 01:03:35 | 54.94352 | 20.16695 | 90° | 97km/h | 596m | 8.6m/s | -48.8°C | 34.9% | 14.8hPa | 2.2V | 00:00:00 | 00:00:00 | 00:00:00 | |
| AA1-15 | 2026-09-06 01:03:33 | 54.94355 | 20.16604 | 85° | 99km/h | 589m | 8.8m/s | -48.7°C | 35.1% | 14.8hPa | 2.2V | 00:00:00 | 00:00:00 | 00:00:00 | |
| AA1-15 | 2026-09-06 01:03:32 | 54.94352 | 20.16565 | 88° | 100km/h | 593m | 9.6m/s | -48.7°C | 35.2% | 14.8hPa | 2.2V | 00:00:00 | 00:00:00 | 00:00:00 | |
| AA1-15 | 2026-09-06 01:03:30 | 54.94344 | 20.16455 | 83° | 97km/h | 594m | 7.8m/s | -48.8°C | 35.5% | 14.8hPa | 2.2V | 00:00:00 | 00:00:00 | 00:00:00 | |
| AA1-15 | 2026-09-06 01:03:28 | 54.94334 | 20.16352 | 80° | 99km/h | 573m | 8.9m/s | -48.8°C | 35.6% | 14.9hPa | 2.2V | 00:00:00 | 00:00:00 | 00:00:00 | |
| AA1-15 | 2026-09-06 01:03:28 | 54.94331 | 20.16310 | 78° | 97km/h | 569m | 9.9m/s | -48.8°C | 35.7% | 14.9hPa | 2.2V | 00:00:00 | 00:00:00 | 00:00:00 | |
| AA1-15 | 2026-09-06 01:03:25 | 54.94322 | 20.16234 | 74° | 97km/h | 560m | 10m/s | -48.8°C | 35.7% | 14.9hPa | 2.2V | 00:00:00 | 00:00:00 | 00:00:00 | |
| AA1-15 | 2026-09-06 01:03:24 | 54.94317 | 20.16192 | 73° | 95km/h | 548m | 8.2m/s | -48.8°C | 35.8% | 14.9hPa | 2.2V | 00:00:00 | 00:00:00 | 00:00:00 | |
| AA1-15 | 2026-09-06 01:03:22 | 54.94301 | 20.16114 | 69° | 97km/h | 526m | 8.3m/s | -48.8°C | 35.9% | 15hPa | 2.2V | 00:00:00 | 00:00:00 | 00:00:00 | |
| AA1-15 | 2026-09-06 01:03:20 | 54.94283 | 20.16034 | 66° | 97km/h | 499m | 8.4m/s | -48.8°C | 35.9% | 15hPa | 2.2V | 00:00:00 | 00:00:00 | 00:00:00 | |
| AA1-15 | 2026-09-06 01:03:18 | 54.94266 | 20.15959 | 64° | 97km/h | 472m | 8.1m/s | -48.8°C | 36% | 15hPa | 2.2V | 00:00:00 | 00:00:00 | 00:00:00 | |
| AA1-15 | 2026-09-06 01:03:17 | 54.94257 | 20.15920 | 60° | 97km/h | 455m | 7.7m/s | -48.7°C | 35.9% | 15hPa | 2.2V | 00:00:00 | 00:00:00 | 00:00:00 | |
| AA1-15 | 2026-09-06 01:03:15 | 54.94236 | 20.15850 | 58° | 97km/h | 425m | 8.5m/s | -48.7°C | 35.9% | 15hPa | 2.2V | 00:00:00 | 00:00:00 | 00:00:00 | |
| AA1-15 | 2026-09-06 01:03:14 | 54.94222 | 20.15817 | 57° | 93km/h | 414m | 8.8m/s | -48.6°C | 36% | 15.1hPa | 2.2V | 00:00:00 | 00:00:00 | 00:00:00 | |
| AA1-15 | 2026-09-06 01:03:12 | 54.94192 | 20.15750 | 52° | 97km/h | 393m | 9m/s | -48.6°C | 35.9% | 15.1hPa | 2.2V | 00:00:00 | 00:00:00 | 00:00:00 | |
| AA1-15 | 2026-09-06 01:03:11 | 54.94176 | 20.15716 | 51° | 95km/h | 380m | 8.8m/s | -48.6°C | 35.9% | 15.1hPa | 2.2V | 00:00:00 | 00:00:00 | 00:00:00 | |
| AA1-15 | 2026-09-06 01:03:09 | 54.94144 | 20.15650 | 49° | 97km/h | 356m | 8.7m/s | -48.5°C | 35.9% | 15.1hPa | 2.2V | 00:00:00 | 00:00:00 | 00:00:00 | |
| AA1-15 | 2026-09-06 01:03:07 | 54.94111 | 20.15588 | 45° | 97km/h | 333m | 8.5m/s | -48.5°C | 35.9% | 15.2hPa | 2.2V | 00:00:00 | 00:00:00 | 00:00:00 | |
| AA1-15 | 2026-09-06 01:03:05 | 54.94075 | 20.15530 | 43° | 97km/h | 314m | 8.7m/s | -48.4°C | 35.9% | 15.2hPa | 2.2V | 00:00:00 | 00:00:00 | 00:00:00 | |
| AA1-15 | 2026-09-06 01:03:04 | 54.94057 | 20.15501 | 42° | 95km/h | 306m | 8m/s | -48.4°C | 35.9% | 15.2hPa | 2.2V | 00:00:00 | 00:00:00 | 00:00:00 | |
| AA1-15 | 2026-09-06 01:03:02 | 54.94015 | 20.15446 | 39° | 95km/h | 286m | 8.2m/s | -48.4°C | 35.8% | 15.2hPa | 2.2V | 00:00:00 | 00:00:00 | 00:00:00 | |
| AA1-15 | 2026-09-06 01:03:00 | 54.93973 | 20.15393 | 35° | 97km/h | 262m | 8.1m/s | -48.4°C | 35.7% | 15.3hPa | 2.2V | 00:00:00 | 00:00:00 | 00:00:00 | |
| AA1-15 | 2026-09-06 01:02:59 | 54.93951 | 20.15367 | 32° | 100km/h | 248m | 9m/s | -48.4°C | 35.6% | 15.3hPa | 2.2V | 00:00:00 | 00:00:00 | 00:00:00 | |
| AA1-15 | 2026-09-06 01:02:58 | 54.93932 | 20.15341 | 33° | 91km/h | 235m | 8.1m/s | -48.4°C | 35.5% | 15.3hPa | 2.2V | 00:00:00 | 00:00:00 | 00:00:00 | |
| AA1-15 | 2026-09-06 01:02:56 | 54.93894 | 20.15290 | 29° | 93km/h | 215m | 7.6m/s | -48.3°C | 35.4% | 15.4hPa | 2.2V | 00:00:00 | 00:00:00 | 00:00:00 | |
| AA1-15 | 2026-09-06 01:02:56 | 54.93877 | 20.15265 | 28° | 93km/h | 208m | 5.4m/s | -48.3°C | 35.3% | 15.3hPa | 2.2V | 00:00:00 | 00:00:00 | 00:00:00 | |
| AA1-15 | 2026-09-06 01:02:53 | 54.93848 | 20.15213 | 23° | 100km/h | 196m | 7.3m/s | -48.2°C | 35.2% | 15.4hPa | 2.2V | 00:00:00 | 00:00:00 | 00:00:00 | |
| AA1-15 | 2026-09-06 01:02:51 | 54.93848 | 20.15130 | 21° | 97km/h | 230m | 7.6m/s | -48.2°C | 35% | 15.4hPa | 2.2V | 00:00:00 | 00:00:00 | 00:00:00 | |
| AA1-15 | 2026-09-06 01:02:49 | 54.93966 | 20.14753 | 25° | 131km/h | 294m | 19.8m/s | -48.2°C | 34.9% | 15.4hPa | 2.2V | 00:00:00 | 00:00:00 | 00:00:00 | |
| AA1-15 | 2026-09-06 01:02:48 | 54.94040 | 20.14592 | 11° | 113km/h | 332m | 21.4m/s | -48.2°C | 34.8% | 15.4hPa | 2.2V | 00:00:00 | 00:00:00 | 00:00:00 | |
| AA1-15 | 2026-09-06 01:02:41 | 54.51871 | 20.40573 | 287° | 11km/h | 159087m | 9m/s | -48.2°C | 34.6% | 15.6hPa | 2.2V | 00:00:00 | 00:00:00 | 00:00:00 | |
| AA1-15 | 2026-09-06 01:02:30 | 54.51864 | 20.40622 | 272° | 16km/h | 2703m | 8.1m/s | -48.2°C | 34.6% | 15.7hPa | 2.2V | 00:00:00 | 00:00:00 | 00:00:00 | |
| AA1-15 | 2026-09-06 01:02:19 | 54.51852 | 20.40670 | 268° | 15km/h | 2675m | 8m/s | -48.2°C | 34.3% | 15.8hPa | 2.2V | 00:00:00 | 00:00:00 | 00:00:00 | |
| AA1-15 | 2026-09-06 01:02:06 | 54.51859 | 20.40708 | 258° | 11km/h | 2580m | 10.1m/s | -48.3°C | 33.9% | 16hPa | 2.2V | 00:00:00 | 00:00:00 | 00:00:00 | |
| AA1-15 | 2026-09-06 01:01:56 | 54.51875 | 20.40782 | 272° | 16km/h | 2563m | 8.6m/s | -48.4°C | 35.4% | 16.2hPa | 2.2V | 00:00:00 | 00:00:00 | 00:00:00 | |
| AA1-15 | 2026-09-06 01:01:46 | 54.51875 | 20.40878 | 266° | 18km/h | 2505m | 6.7m/s | -48.5°C | 35.6% | 16.3hPa | 2.2V | 00:00:00 | 00:00:00 | 00:00:00 | |
| AA1-15 | 2026-09-06 01:01:35 | 54.51880 | 20.41019 | 271° | 15km/h | 2418m | 8.4m/s | -48.4°C | 35% | 16.4hPa | 2.2V | 00:00:00 | 00:00:00 | 00:00:00 | |
| AA1-15 | 2026-09-06 01:01:25 | 54.51862 | 20.41062 | 275° | 13km/h | 2270m | 8.5m/s | -48.6°C | 34.8% | 16.7hPa | 2.2V | 00:00:00 | 00:00:00 | 00:00:00 | |
| AA1-15 | 2026-09-06 01:01:14 | 54.51861 | 20.41136 | 271° | 13km/h | 2169m | 8.9m/s | -48.9°C | 34.3% | 16.8hPa | 2.2V | 00:00:00 | 00:00:00 | 00:00:00 | |
| AA1-15 | 2026-09-06 01:01:02 | 54.51857 | 20.41202 | 271° | 16km/h | 2080m | 7.6m/s | -49.2°C | 33.8% | 16.9hPa | 2.2V | 00:00:00 | 00:00:00 | 00:00:00 | |
| SQ2ODE-11 | 2026-09-06 01:01:01 | 54.51856 | 20.41211 | 271° | 22km/h | 2070m | 5.6m/s | 0°C | 0% | 0hPa | 2.2V | 00:00:00 | 00:00:00 | 00:00:00 | |
| SQ2ODE-11 | 2026-09-06 01:00:56 | 54.51843 | 20.41258 | 270° | 15km/h | 2015m | 7.9m/s | 0°C | 0% | 0hPa | 2.2V | 00:00:00 | 00:00:00 | 00:00:00 | |
| SQ2ODE-11 | 2026-09-06 01:00:50 | 54.51841 | 20.41310 | 272° | 16km/h | 2046m | 7.8m/s | 0°C | 0% | 0hPa | 2.2V | 00:00:00 | 00:00:00 | 00:00:00 | |
| SQ2ODE-11 | 2026-09-06 01:00:45 | 54.51826 | 20.41344 | 272° | 13km/h | 2050m | 8.4m/s | 0°C | 0% | 0hPa | 2.2V | 00:00:00 | 00:00:00 | 00:00:00 | |
| SQ2ODE-11 | 2026-09-06 01:00:39 | 54.51840 | 20.41390 | 260° | 20km/h | 1946m | 11.1m/s | 0°C | 0% | 0hPa | 2.2V | 00:00:00 | 00:00:00 | 00:00:00 | |
| SQ2ODE-11 | 2026-09-06 01:00:34 | 54.51851 | 20.41415 | 268° | 15km/h | 1850m | 8.4m/s | 0°C | 0% | 0hPa | 2.2V | 00:00:00 | 00:00:00 | 00:00:00 | |
| SQ2ODE-11 | 2026-09-06 01:00:28 | 54.51869 | 20.41375 | 272° | 18km/h | 1782m | 7.9m/s | 0°C | 0% | 0hPa | 2.2V | 00:00:00 | 00:00:00 | 00:00:00 | |
| SQ2ODE-11 | 2026-09-06 01:00:23 | 54.51885 | 20.41480 | 255° | 95km/h | 1704m | 9.0m/s | 0°C | 0% | 0hPa | 2.2V | 00:00:00 | 00:00:00 | 00:00:00 | |
| SQ2ODE-11 | 2026-09-06 01:00:18 | 54.51980 | 20.41701 | 214° | 95km/h | 1622m | 7.5m/s | 0°C | 0% | 0hPa | 2.2V | 00:00:00 | 00:00:00 | 00:00:00 | |
| AA1-15 | 2026-09-06 00:59:58 | 54.52306 | 20.41446 | 106° | 95km/h | 1421m | 9.1m/s | -49.5°C | 33.4% | 17.9hPa | 2.2V | 00:00:00 | 00:00:00 | 00:00:00 | |
| AA1-15 | 2026-09-06 00:59:55 | 54.52314 | 20.41323 | 86° | 97km/h | 1385m | 8.8m/s | -49.6°C | 33.4% | 17.9hPa | 2.2V | 00:00:00 | 00:00:00 | 00:00:00 | |
| AA1-15 | 2026-09-06 00:59:53 | 54.52311 | 20.41240 | 74° | 95km/h | 1356m | 8.7m/s | -49.6°C | 33.4% | 17.9hPa | 2.2V | 00:00:00 | 00:00:00 | 00:00:00 | |
| AA1-15 | 2026-09-06 00:59:51 | 54.52290 | 20.41166 | 61° | 95km/h | 1343m | 7.9m/s | -49.7°C | 33.3% | 18hPa | 2.2V | 00:00:00 | 00:00:00 | 00:00:00 | |
| AA1-15 | 2026-09-06 00:59:49 | 54.52261 | 20.41103 | 49° | 95km/h | 1325m | 8.7m/s | -49.7°C | 33.1% | 18hPa | 2.2V | 00:00:00 | 00:00:00 | 00:00:00 | |
| AA1-15 | 2026-09-06 00:59:48 | 54.52249 | 20.41081 | 43° | 97km/h | 1323m | 8.7m/s | -49.7°C | 33% | 18hPa | 2.2V | 00:00:00 | 00:00:00 | 00:00:00 | |
| AA1-15 | 2026-09-06 00:59:46 | 54.52214 | 20.41068 | 31° | 97km/h | 1361m | 7.6m/s | -49.8°C | 33% | 18hPa | 2.2V | 00:00:00 | 00:00:00 | 00:00:00 | |
| AA1-15 | 2026-09-06 00:59:45 | 54.52200 | 20.41082 | 24° | 95km/h | 1398m | 8.2m/s | -49.8°C | 32.9% | 18hPa | 2.2V | 00:00:00 | 00:00:00 | 00:00:00 | |
| AA1-15 | 2026-09-06 00:59:43 | 54.52149 | 20.41043 | 13° | 97km/h | 1376m | 8.3m/s | -49.9°C | 32.8% | 18.1hPa | 2.2V | 00:00:00 | 00:00:00 | 00:00:00 | |
| AA1-15 | 2026-09-06 00:59:40 | 54.52064 | 20.41063 | 359° | 93km/h | 1428m | 6.3m/s | -49.9°C | 32.7% | 18.1hPa | 2.2V | 00:00:00 | 00:00:00 | 00:00:00 | |
| AA1-15 | 2026-09-06 00:59:39 | 54.52039 | 20.41072 | 358° | 95km/h | 1442m | 7.8m/s | -49.9°C | 32.7% | 18.1hPa | 2.2V | 00:00:00 | 00:00:00 | 00:00:00 | |
| AA1-15 | 2026-09-06 00:59:37 | 54.51993 | 20.41068 | 1° | 97km/h | 1423m | 9.1m/s | -49.9°C | 32.8% | 18.2hPa | 2.2V | 00:00:00 | 00:00:00 | 00:00:00 | |
| AA1-15 | 2026-09-06 00:59:35 | 54.51943 | 20.41068 | 1° | 99km/h | 1398m | 9.1m/s | -49.8°C | 32.7% | 18.2hPa | 2.2V | 00:00:00 | 00:00:00 | 00:00:00 | |
| AA1-15 | 2026-09-06 00:59:33 | 54.51888 | 20.41070 | 1° | 95km/h | 1368m | 9m/s | -49.8°C | 32.9% | 18.3hPa | 2.2V | 00:00:00 | 00:00:00 | 00:00:00 | |
| AA1-15 | 2026-09-06 00:59:32 | 54.51858 | 20.41069 | 0° | 95km/h | 1345m | 9.5m/s | -49.8°C | 33.1% | 18.2hPa | 2.2V | 00:00:00 | 00:00:00 | 00:00:00 | |
| AA1-15 | 2026-09-06 00:59:27 | 54.51741 | 20.41070 | 360° | 93km/h | 1287m | 8.2m/s | -49.7°C | 33.4% | 18.3hPa | 2.2V | 00:00:00 | 00:00:00 | 00:00:00 | |
| AA1-15 | 2026-09-06 00:59:26 | 54.51716 | 20.41073 | 0° | 99km/h | 1274m | 8.6m/s | -49.7°C | 33.3% | 18.3hPa | 2.2V | 00:00:00 | 00:00:00 | 00:00:00 | |
| AA1-15 | 2026-09-06 00:59:24 | 54.51667 | 20.41078 | 0° | 99km/h | 1252m | 8.4m/s | -49.6°C | 33.4% | 18.4hPa | 2.2V | 00:00:00 | 00:00:00 | 00:00:00 | |
| AA1-15 | 2026-09-06 00:59:19 | 54.51557 | 20.40996 | 60° | 99km/h | 1200m | 8.2m/s | -49.6°C | 33.3% | 18.4hPa | 2.2V | 00:00:00 | 00:00:00 | 00:00:00 | |
| AA1-15 | 2026-09-06 00:59:16 | 54.51558 | 20.40867 | 117° | 97km/h | 1163m | 8m/s | -49.7°C | 33.2% | 18.5hPa | 2.2V | 00:00:00 | 00:00:00 | 00:00:00 | |
| AA1-15 | 2026-09-06 00:59:12 | 54.51637 | 20.40790 | 189° | 91km/h | 1104m | 8.4m/s | -49.7°C | 32.9% | 18.5hPa | 2.2V | 00:00:00 | 00:00:00 | 00:00:00 | |
| AA1-15 | 2026-09-06 00:59:06 | 54.51707 | 20.40985 | 270° | 97km/h | 1061m | 8m/s | -49.7°C | 32.7% | 18.6hPa | 2.2V | 00:00:00 | 00:00:00 | 00:00:00 | |
| AA1-15 | 2026-09-06 00:59:02 | 54.51707 | 20.41158 | 270° | 93km/h | 1059m | 8.1m/s | -49.7°C | 32.6% | 18.7hPa | 2.2V | 00:00:00 | 00:00:00 | 00:00:00 | |
| AA1-15 | 2026-09-06 00:58:58 | 54.51671 | 20.41238 | 271° | 95km/h | 1402m | 4.9m/s | -49.7°C | 32.5% | 18.8hPa | 2.2V | 00:00:00 | 00:00:00 | 00:00:00 | |
| AA1-15 | 2026-09-06 00:58:56 | 54.51668 | 20.41337 | 270° | 95km/h | 1418m | 5.8m/s | -49.7°C | 32.5% | 18.8hPa | 2.2V | 00:00:00 | 00:00:00 | 00:00:00 | |
| AA1-15 | 2026-09-06 00:58:55 | 54.51668 | 20.41380 | 270° | 97km/h | 1444m | 6.5m/s | -49.8°C | 32.6% | 18.8hPa | 2.2V | 00:00:00 | 00:00:00 | 00:00:00 | |
| AA1-15 | 2026-09-06 00:58:49 | 54.51784 | 20.41879 | 228° | 95km/h | 1925m | 5.8m/s | -50.1°C | 32.4% | 18.9hPa | 2.2V | 00:00:00 | 00:00:00 | 00:00:00 | |
| AA1-15 | 2026-09-06 00:58:35 | 54.68762 | 19.98293 | 84° | 69km/h | 159087m | 3m/s | -50.7°C | 31.7% | 19.1hPa | 2.2V | 00:00:00 | 00:00:00 | 00:00:00 | |
| AA1-15 | 2026-09-06 00:58:20 | 54.68757 | 19.98272 | 272° | 13km/h | 2632m | 8m/s | -51°C | 31.4% | 19.4hPa | 2.2V | 00:00:00 | 00:00:00 | 00:00:00 | |
| AA1-15 | 2026-09-06 00:57:55 | 54.68703 | 19.98507 | 272° | 13km/h | 2343m | 8.4m/s | -50.9°C | 30.7% | 19.7hPa | 2.2V | 00:00:00 | 00:00:00 | 00:00:00 | |
| AA1-15 | 2026-09-06 00:54:31 | 54.85122 | 20.14275 | 268° | 13km/h | 2816m | 8.2m/s | -50.9°C | 31.3% | 23.2hPa | 2.2V | 00:00:00 | 00:00:00 | 00:00:00 | |
| AA1-15 | 2026-09-06 00:52:48 | 54.85085 | 20.14826 | 268° | 13km/h | 1786m | 8.4m/s | -51.1°C | 27.4% | 25hPa | 2.2V | 00:00:00 | 00:00:00 | 00:00:00 | |
| AA1-15 | 2026-09-06 00:52:41 | 54.85088 | 20.14894 | 268° | 13km/h | 1747m | 9.1m/s | -51.2°C | 26.9% | 25.1hPa | 2.2V | 00:00:00 | 00:00:00 | 00:00:00 | |
| AA1-15 | 2026-09-06 00:52:38 | 54.85100 | 20.14927 | 262° | 13km/h | 1744m | 9.5m/s | -51.2°C | 26.9% | 25.2hPa | 2.2V | 00:00:00 | 00:00:00 | 00:00:00 | |
| AA1-15 | 2026-09-06 00:52:21 | 54.85160 | 20.15262 | 236° | 93km/h | 1893m | 9.1m/s | -51.1°C | 26.8% | 25.5hPa | 2.2V | 00:00:00 | 00:00:00 | 00:00:00 | |
| AA1-15 | 2026-09-06 00:52:18 | 54.85196 | 20.15310 | 217° | 97km/h | 1837m | 8.8m/s | -51.1°C | 26.5% | 25.5hPa | 2.2V | 00:00:00 | 00:00:00 | 00:00:00 | |
| AA1-15 | 2026-09-06 00:52:17 | 54.85221 | 20.15326 | 209° | 93km/h | 1819m | 9.4m/s | -51.1°C | 26.4% | 25.6hPa | 2.2V | 00:00:00 | 00:00:00 | 00:00:00 | |
| AA1-15 | 2026-09-06 00:52:16 | 54.85243 | 20.15346 | 205° | 95km/h | 1811m | 8.9m/s | -51.1°C | 26.3% | 25.6hPa | 2.2V | 00:00:00 | 00:00:00 | 00:00:00 | |
| AA1-15 | 2026-09-06 00:52:11 | 54.85349 | 20.15392 | 177° | 93km/h | 1775m | 7.5m/s | -51.1°C | 25.9% | 25.7hPa | 2.2V | 00:00:00 | 00:00:00 | 00:00:00 | |
| AA1-15 | 2026-09-06 00:52:10 | 54.85368 | 20.15390 | 169° | 97km/h | 1769m | 8.4m/s | -51.1°C | 26.1% | 25.7hPa | 2.2V | 00:00:00 | 00:00:00 | 00:00:00 | |
| AA1-15 | 2026-09-06 00:52:08 | 54.85405 | 20.15369 | 158° | 99km/h | 1749m | 8.6m/s | -51°C | 26.6% | 25.7hPa | 2.2V | 00:00:00 | 00:00:00 | 00:00:00 | |
| AA1-15 | 2026-09-06 00:52:06 | 54.85442 | 20.15329 | 146° | 97km/h | 1730m | 8.4m/s | -50.9°C | 26.7% | 25.8hPa | 2.2V | 00:00:00 | 00:00:00 | 00:00:00 | |
| AA1-15 | 2026-09-06 00:51:59 | 54.85544 | 20.15074 | 101° | 95km/h | 1636m | 7.9m/s | -50.8°C | 28.1% | 25.9hPa | 2.2V | 00:00:00 | 00:00:00 | 00:00:00 | |
| AA1-15 | 2026-09-06 00:51:54 | 54.85515 | 20.14846 | 69° | 97km/h | 1560m | 8.2m/s | -50.8°C | 28.6% | 26hPa | 2.2V | 00:00:00 | 00:00:00 | 00:00:00 | |
| AA1-15 | 2026-09-06 00:51:53 | 54.85507 | 20.14807 | 61° | 99km/h | 1540m | 8.6m/s | -50.7°C | 28.6% | 26hPa | 2.2V | 00:00:00 | 00:00:00 | 00:00:00 | |
| AA1-15 | 2026-09-06 00:51:51 | 54.85498 | 20.14773 | 56° | 95km/h | 1520m | 8.7m/s | -50.7°C | 28.5% | 26.1hPa | 2.2V | 00:00:00 | 00:00:00 | 00:00:00 | |
| AA1-15 | 2026-09-06 00:51:50 | 54.85484 | 20.14744 | 50° | 97km/h | 1503m | 10.2m/s | -50.7°C | 28.4% | 26hPa | 2.2V | 00:00:00 | 00:00:00 | 00:00:00 | |
| AA1-15 | 2026-09-06 00:51:48 | 54.85449 | 20.14700 | 37° | 93km/h | 1471m | 8.1m/s | -50.7°C | 28.4% | 26.1hPa | 2.2V | 00:00:00 | 00:00:00 | 00:00:00 | |
| AA1-15 | 2026-09-06 00:51:45 | 54.85383 | 20.14647 | 18° | 95km/h | 1450m | 8.5m/s | -50.7°C | 28.7% | 26.2hPa | 2.2V | 00:00:00 | 00:00:00 | 00:00:00 | |
| AA1-15 | 2026-09-06 00:51:42 | 54.85313 | 20.14629 | 0° | 93km/h | 1422m | 7.9m/s | -50.8°C | 28.5% | 26.2hPa | 2.2V | 00:00:00 | 00:00:00 | 00:00:00 | |
| AA1-15 | 2026-09-06 00:51:41 | 54.85289 | 20.14628 | 0° | 93km/h | 1410m | 8.4m/s | -50.8°C | 28.4% | 26.3hPa | 2.2V | 00:00:00 | 00:00:00 | 00:00:00 | |
| AA1-15 | 2026-09-06 00:51:39 | 54.85242 | 20.14624 | 0° | 93km/h | 1387m | 8.1m/s | -50.9°C | 28.4% | 26.3hPa | 2.2V | 00:00:00 | 00:00:00 | 00:00:00 | |
| AA1-15 | 2026-09-06 00:51:38 | 54.85219 | 20.14623 | 360° | 100km/h | 1375m | 7.5m/s | -50.9°C | 28.4% | 26.3hPa | 2.2V | 00:00:00 | 00:00:00 | 00:00:00 | |
| AA1-15 | 2026-09-06 00:51:36 | 54.85172 | 20.14621 | 0° | 100km/h | 1352m | 8.5m/s | -50.9°C | 28.2% | 26.3hPa | 2.2V | 00:00:00 | 00:00:00 | 00:00:00 | |
| AA1-15 | 2026-09-06 00:51:34 | 54.85125 | 20.14618 | 1° | 95km/h | 1328m | 8.5m/s | -50.9°C | 28% | 26.3hPa | 2.2V | 00:00:00 | 00:00:00 | 00:00:00 | |
| AA1-15 | 2026-09-06 00:51:32 | 54.85077 | 20.14616 | 0° | 95km/h | 1310m | 7.6m/s | -50.9°C | 27.9% | 26.4hPa | 2.2V | 00:00:00 | 00:00:00 | 00:00:00 | |
| AA1-15 | 2026-09-06 00:51:30 | 54.85029 | 20.14616 | 360° | 95km/h | 1292m | 8m/s | -50.9°C | 27.8% | 26.4hPa | 2.2V | 00:00:00 | 00:00:00 | 00:00:00 | |
| AA1-15 | 2026-09-06 00:51:28 | 54.84983 | 20.14618 | 360° | 95km/h | 1267m | 7.8m/s | -51°C | 27.8% | 26.5hPa | 2.2V | 00:00:00 | 00:00:00 | 00:00:00 | |
| AA1-15 | 2026-09-06 00:51:26 | 54.84940 | 20.14620 | 360° | 95km/h | 1236m | 8.4m/s | -51°C | 27.9% | 26.5hPa | 2.2V | 00:00:00 | 00:00:00 | 00:00:00 | |
| AA1-15 | 2026-09-06 00:51:25 | 54.84917 | 20.14619 | 360° | 100km/h | 1226m | 8m/s | -51°C | 27.7% | 26.5hPa | 2.2V | 00:00:00 | 00:00:00 | 00:00:00 | |
| AA1-15 | 2026-09-06 00:51:24 | 54.84892 | 20.14619 | 360° | 93km/h | 1218m | 8.4m/s | -51°C | 27.6% | 26.5hPa | 2.2V | 00:00:00 | 00:00:00 | 00:00:00 | |
| AA1-15 | 2026-09-06 00:51:21 | 54.84823 | 20.14581 | 43° | 100km/h | 1190m | 8.2m/s | -51°C | 27.1% | 26.6hPa | 2.2V | 00:00:00 | 00:00:00 | 00:00:00 | |
| AA1-15 | 2026-09-06 00:51:20 | 54.84808 | 20.14548 | 59° | 97km/h | 1178m | 8.5m/s | -51°C | 26.9% | 26.6hPa | 2.2V | 00:00:00 | 00:00:00 | 00:00:00 | |
| AA1-15 | 2026-09-06 00:51:18 | 54.84799 | 20.14467 | 99° | 95km/h | 1154m | 8.4m/s | -50.9°C | 26.8% | 26.7hPa | 2.2V | 00:00:00 | 00:00:00 | 00:00:00 | |
| AA1-15 | 2026-09-06 00:51:17 | 54.84806 | 20.14428 | 116° | 99km/h | 1141m | 8.4m/s | -50.9°C | 26.7% | 26.7hPa | 2.2V | 00:00:00 | 00:00:00 | 00:00:00 | |
| AA1-15 | 2026-09-06 00:51:15 | 54.84837 | 20.14368 | 153° | 99km/h | 1115m | 8.6m/s | -50.9°C | 26.4% | 26.8hPa | 2.2V | 00:00:00 | 00:00:00 | 00:00:00 | |
| AA1-15 | 2026-09-06 00:51:13 | 54.84883 | 20.14353 | 189° | 89km/h | 1090m | 9.1m/s | -50.9°C | 26.1% | 26.8hPa | 2.2V | 00:00:00 | 00:00:00 | 00:00:00 | |
| AA1-15 | 2026-09-06 00:51:12 | 54.84928 | 20.14387 | 224° | 97km/h | 1066m | 8.5m/s | -50.9°C | 26% | 26.8hPa | 2.2V | 00:00:00 | 00:00:00 | 00:00:00 | |
| AA1-15 | 2026-09-06 00:51:10 | 54.84942 | 20.14420 | 243° | 97km/h | 1055m | 8.5m/s | -50.9°C | 25.8% | 26.9hPa | 2.2V | 00:00:00 | 00:00:00 | 00:00:00 | |
| AA1-15 | 2026-09-06 00:51:06 | 54.84949 | 20.14591 | 270° | 95km/h | 1012m | 7.3m/s | -50.9°C | 25.4% | 26.9hPa | 2.2V | 00:00:00 | 00:00:00 | 00:00:00 | |
| AA1-15 | 2026-09-06 00:51:05 | 54.84948 | 20.14634 | 270° | 99km/h | 1006m | 7.7m/s | -50.9°C | 25.5% | 26.9hPa | 2.2V | 00:00:00 | 00:00:00 | 00:00:00 | |
| AA1-15 | 2026-09-06 00:51:04 | 54.84947 | 20.14677 | 270° | 97km/h | 999m | 7.9m/s | -50.9°C | 25.5% | 26.9hPa | 2.2V | 00:00:00 | 00:00:00 | 00:00:00 | |
| AA1-15 | 2026-09-06 00:51:02 | 54.84945 | 20.14762 | 270° | 95km/h | 984m | 8.3m/s | -50.9°C | 25.7% | 27hPa | 2.2V | 00:00:00 | 00:00:00 | 00:00:00 | |
| AA1-15 | 2026-09-06 00:51:01 | 54.84939 | 20.14845 | 270° | 95km/h | 973m | 7.9m/s | -50.9°C | 25.7% | 27.1hPa | 2.2V | 00:00:00 | 00:00:00 | 00:00:00 | |
| AA1-15 | 2026-09-06 00:50:59 | 54.84935 | 20.14886 | 270° | 95km/h | 969m | 8m/s | -50.9°C | 25.9% | 27hPa | 2.2V | 00:00:00 | 00:00:00 | 00:00:00 | |
| AA1-15 | 2026-09-06 00:50:58 | 54.84929 | 20.14929 | 270° | 97km/h | 964m | 7.9m/s | -50.9°C | 26.2% | 27.1hPa | 2.2V | 00:00:00 | 00:00:00 | 00:00:00 | |
| AA1-15 | 2026-09-06 00:50:57 | 54.84919 | 20.14972 | 270° | 95km/h | 965m | 8.2m/s | -50.9°C | 26.6% | 27.1hPa | 2.2V | 00:00:00 | 00:00:00 | 00:00:00 | |
| AA1-15 | 2026-09-06 00:50:55 | 54.84890 | 20.15060 | 270° | 95km/h | 972m | 8.2m/s | -50.9°C | 26.9% | 27.1hPa | 2.2V | 00:00:00 | 00:00:00 | 00:00:00 | |
| AA1-15 | 2026-09-06 00:50:53 | 54.84873 | 20.15156 | 262° | 97km/h | 974m | 8m/s | -50.9°C | 27% | 27.1hPa | 2.2V | 00:00:00 | 00:00:00 | 00:00:00 | |
| AA1-15 | 2026-09-06 00:50:52 | 54.84860 | 20.15211 | 257° | 95km/h | 989m | 5.7m/s | -50.9°C | 27.2% | 27.2hPa | 2.2V | 00:00:00 | 00:00:00 | 00:00:00 | |
| AA1-15 | 2026-09-06 00:50:51 | 54.84840 | 20.15270 | 250° | 93km/h | 1011m | 0.6m/s | -50.9°C | 27.5% | 27.2hPa | 2.2V | 00:00:00 | 00:00:00 | 00:00:00 | |
| AA1-15 | 2026-09-06 00:50:49 | 54.84548 | 20.15757 | 222° | 95km/h | 1098m | 8.3m/s | -50.9°C | 28% | 27.2hPa | 2.2V | 00:00:00 | 00:00:00 | 00:00:00 | |
| AA1-15 | 2026-09-06 00:50:46 | 54.84639 | 20.15826 | 201° | 115km/h | 1119m | -11.1m/s | -50.8°C | 28.3% | 27.3hPa | 2.2V | 00:00:00 | 00:00:00 | 00:00:00 | |
| AA1-15 | 2026-09-06 00:50:45 | 54.84682 | 20.15813 | 185° | 82km/h | 1119m | -15.6m/s | -50.7°C | 28.2% | 27.3hPa | 2.2V | 00:00:00 | 00:00:00 | 00:00:00 | |
| AA1-15 | 2026-09-06 00:50:44 | 54.84786 | 20.15769 | 173° | 84km/h | 1158m | -50.4m/s | -50.7°C | 28.2% | 27.3hPa | 2.2V | 00:00:00 | 00:00:00 | 00:00:00 | |
| AA1-15 | 2026-09-06 00:50:39 | 54.93886 | 20.15137 | 90° | 9km/h | 159087m | 12.5m/s | -50.6°C | 28.1% | 27.4hPa | 2.2V | 00:00:00 | 00:00:00 | 00:00:00 | |
| AA1-15 | 2026-09-06 00:50:27 | 54.93872 | 20.15106 | 358° | 11km/h | 2867m | 8m/s | -50.6°C | 28.1% | 27.6hPa | 2.2V | 00:00:00 | 00:00:00 | 00:00:00 | |
| AA1-15 | 2026-09-06 00:50:17 | 54.93853 | 20.15113 | 360° | 16km/h | 2775m | 8.3m/s | -50.3°C | 28.4% | 27.9hPa | 2.2V | 00:00:00 | 00:00:00 | 00:00:00 | |
| AA1-15 | 2026-09-06 00:50:06 | 54.93808 | 20.15145 | 0° | 16km/h | 2675m | 8.1m/s | -50.1°C | 28% | 28.1hPa | 2.2V | 00:00:00 | 00:00:00 | 00:00:00 | |
| AA1-15 | 2026-09-06 00:49:55 | 54.93760 | 20.15178 | 360° | 11km/h | 2573m | 8.3m/s | -50.1°C | 28.8% | 28.4hPa | 2.2V | 00:00:00 | 00:00:00 | 00:00:00 | |
| AA1-15 | 2026-09-06 00:49:44 | 54.93715 | 20.15064 | 357° | 11km/h | 2366m | 7.4m/s | -50.1°C | 28.8% | 28.6hPa | 2.2V | 00:00:00 | 00:00:00 | 00:00:00 | |
| AA1-15 | 2026-09-06 00:49:34 | 54.93724 | 20.15126 | 3° | 16km/h | 2446m | 8.4m/s | -50.1°C | 28.2% | 28.8hPa | 2.2V | 00:00:00 | 00:00:00 | 00:00:00 | |
| AA1-15 | 2026-09-06 00:49:23 | 54.93667 | 20.15119 | 1° | 16km/h | 2314m | 8.2m/s | -49.9°C | 27.6% | 29hPa | 2.2V | 00:00:00 | 00:00:00 | 00:00:00 | |
| AA1-15 | 2026-09-06 00:49:12 | 54.93638 | 20.15127 | 358° | 13km/h | 2321m | 5.5m/s | -49.7°C | 26.7% | 29.2hPa | 2.2V | 00:00:00 | 00:00:00 | 00:00:00 | |
| AA1-15 | 2026-09-06 00:49:01 | 54.93564 | 20.15241 | 2° | 16km/h | 2381m | 8m/s | -49.4°C | 26.3% | 29.4hPa | 2.2V | 00:00:00 | 00:00:00 | 00:00:00 | |
| AA1-15 | 2026-09-06 00:48:51 | 54.93551 | 20.15229 | 360° | 15km/h | 2255m | 7.5m/s | -49.2°C | 26.7% | 29.6hPa | 2.2V | 00:00:00 | 00:00:00 | 00:00:00 | |
| AA1-15 | 2026-09-06 00:48:40 | 54.93516 | 20.15224 | 359° | 11km/h | 2140m | 7.7m/s | -49.3°C | 27.1% | 29.8hPa | 2.2V | 00:00:00 | 00:00:00 | 00:00:00 | |
| AA1-15 | 2026-09-06 00:48:29 | 54.93460 | 20.15207 | 360° | 11km/h | 1987m | 9.1m/s | -49.4°C | 26.6% | 30hPa | 2.2V | 00:00:00 | 00:00:00 | 00:00:00 | |
| AA1-15 | 2026-09-06 00:48:28 | 54.93451 | 20.15199 | 9° | 29km/h | 1976m | 7.4m/s | -49.5°C | 26.5% | 30.1hPa | 2.2V | 00:00:00 | 00:00:00 | 00:00:00 | |
| AA1-15 | 2026-09-06 00:48:23 | 54.93346 | 20.15149 | 354° | 95km/h | 1895m | 8.8m/s | -49.6°C | 26.6% | 30.1hPa | 2.2V | 00:00:00 | 00:00:00 | 00:00:00 | |
| AA1-15 | 2026-09-06 00:48:21 | 54.93299 | 20.15155 | 348° | 95km/h | 1863m | 9.8m/s | -49.6°C | 26.9% | 30.2hPa | 2.2V | 00:00:00 | 00:00:00 | 00:00:00 | |
| AA1-15 | 2026-09-06 00:48:20 | 54.93274 | 20.15162 | 347° | 91km/h | 1847m | 8.5m/s | -49.7°C | 27.3% | 30.3hPa | 2.2V | 00:00:00 | 00:00:00 | 00:00:00 | |
| AA1-15 | 2026-09-06 00:48:18 | 54.93219 | 20.15183 | 345° | 95km/h | 1821m | 8.3m/s | -49.7°C | 27.1% | 30.3hPa | 2.2V | 00:00:00 | 00:00:00 | 00:00:00 | |
| AA1-15 | 2026-09-06 00:48:10 | 54.93032 | 20.15317 | 334° | 97km/h | 1768m | 8.3m/s | -50°C | 27.2% | 30.4hPa | 2.2V | 00:00:00 | 00:00:00 | 00:00:00 | |
| AA1-15 | 2026-09-06 00:48:09 | 54.93015 | 20.15344 | 330° | 97km/h | 1779m | 7.3m/s | -50°C | 27.2% | 30.4hPa | 2.2V | 00:00:00 | 00:00:00 | 00:00:00 | |
| AA1-15 | 2026-09-06 00:48:03 | 54.92916 | 20.15538 | 321° | 97km/h | 1893m | 7.4m/s | -50.3°C | 26.5% | 30.5hPa | 2.2V | 00:00:00 | 00:00:00 | 00:00:00 | |
| AA1-15 | 2026-09-06 00:47:59 | 54.92853 | 20.15676 | 318° | 93km/h | 1922m | 11.6m/s | -50.4°C | 26.1% | 30.6hPa | 2.2V | 00:00:00 | 00:00:00 | 00:00:00 | |
| AA1-15 | 2026-09-06 00:47:57 | 54.92806 | 20.15733 | 314° | 99km/h | 1893m | 8.2m/s | -50.5°C | 25.9% | 30.6hPa | 2.2V | 00:00:00 | 00:00:00 | 00:00:00 | |
| AA1-15 | 2026-09-06 00:47:56 | 54.92787 | 20.15763 | 312° | 95km/h | 1881m | 9.2m/s | -50.5°C | 25.8% | 30.7hPa | 2.2V | 00:00:00 | 00:00:00 | 00:00:00 | |
| AA1-15 | 2026-09-06 00:47:49 | 54.92687 | 20.15983 | 302° | 97km/h | 1791m | 8m/s | -50.7°C | 25.6% | 30.8hPa | 2.2V | 00:00:00 | 00:00:00 | 00:00:00 | |
| AA1-15 | 2026-09-06 00:47:47 | 54.92660 | 20.16051 | 297° | 97km/h | 1766m | 8.4m/s | -50.7°C | 25.5% | 30.9hPa | 2.2V | 00:00:00 | 00:00:00 | 00:00:00 | |
| AA1-15 | 2026-09-06 00:47:44 | 54.92634 | 20.16125 | 288° | 88km/h | 1713m | 11m/s | -50.8°C | 25.6% | 30.9hPa | 2.2V | 00:00:00 | 00:00:00 | 00:00:00 | |
| AA1-15 | 2026-09-06 00:47:40 | 54.92634 | 20.16321 | 285° | 99km/h | 1734m | 7.5m/s | -50.8°C | 25.9% | 31hPa | 2.2V | 00:00:00 | 00:00:00 | 00:00:00 | |
| AA1-15 | 2026-09-06 00:47:37 | 54.92668 | 20.16496 | 280° | 97km/h | 1785m | 8.3m/s | -50.7°C | 26.4% | 31.1hPa | 2.2V | 00:00:00 | 00:00:00 | 00:00:00 | |
| AA1-15 | 2026-09-06 00:47:36 | 54.92663 | 20.16539 | 280° | 93km/h | 1782m | 8.7m/s | -50.7°C | 26.3% | 31.1hPa | 2.2V | 00:00:00 | 00:00:00 | 00:00:00 | |
| AA1-15 | 2026-09-06 00:47:34 | 54.92650 | 20.16617 | 279° | 95km/h | 1754m | 8.2m/s | -50.7°C | 26.3% | 31.2hPa | 2.2V | 00:00:00 | 00:00:00 | 00:00:00 | |
| AA1-15 | 2026-09-06 00:47:31 | 54.92656 | 20.16754 | 275° | 93km/h | 1743m | 10.7m/s | -50.7°C | 26.3% | 31.2hPa | 2.2V | 00:00:00 | 00:00:00 | 00:00:00 | |
| AA1-15 | 2026-09-06 00:47:00 | 54.92908 | 20.17917 | 223° | 91km/h | 1509m | 7.5m/s | -51.2°C | 23.5% | 31.9hPa | 2.2V | 00:00:00 | 00:00:00 | 00:00:00 | |
| AA1-15 | 2026-09-06 00:46:57 | 54.92962 | 20.18000 | 219° | 95km/h | 1475m | 8.2m/s | -51.2°C | 23.9% | 32hPa | 2.2V | 00:00:00 | 00:00:00 | 00:00:00 | |
| AA1-15 | 2026-09-06 00:46:38 | 54.93367 | 20.18273 | 187° | 93km/h | 1226m | 7.4m/s | -51.4°C | 24.4% | 32.3hPa | 2.2V | 00:00:00 | 00:00:00 | 00:00:00 | |
| AA1-15 | 2026-09-06 00:46:37 | 54.93387 | 20.18279 | 187° | 95km/h | 1218m | 8.4m/s | -51.3°C | 24.2% | 32.4hPa | 2.2V | 00:00:00 | 00:00:00 | 00:00:00 | |
| SQ2ODE-11 | 2026-09-06 00:44:28 | 54.51872 | 20.40644 | 265° | 13km/h | 2841m | 8.6m/s | 0°C | 0% | 0hPa | 2.2V | 00:00:00 | 00:00:00 | 00:00:00 | |
| SQ2ODE-11 | 2026-09-06 00:44:20 | 54.51864 | 20.40712 | 271° | 15km/h | 2778m | 7.8m/s | 0°C | 0% | 0hPa | 2.2V | 00:00:00 | 00:00:00 | 00:00:00 | |
| SQ2ODE-11 | 2026-09-06 00:44:15 | 54.51858 | 20.40765 | 271° | 13km/h | 2738m | 8.2m/s | 0°C | 0% | 0hPa | 2.2V | 00:00:00 | 00:00:00 | 00:00:00 | |
| SQ2ODE-11 | 2026-09-06 00:44:10 | 54.51863 | 20.40800 | 272° | 13km/h | 2696m | 8.0m/s | 0°C | 0% | 0hPa | 2.2V | 00:00:00 | 00:00:00 | 00:00:00 | |
| SQ2ODE-11 | 2026-09-06 00:44:02 | 54.51875 | 20.40856 | 272° | 13km/h | 2619m | 7.9m/s | 0°C | 0% | 0hPa | 2.2V | 00:00:00 | 00:00:00 | 00:00:00 | |
| SQ2ODE-11 | 2026-09-06 00:43:56 | 54.51885 | 20.40892 | 271° | 16km/h | 2522m | 7.9m/s | 0°C | 0% | 0hPa | 2.2V | 00:00:00 | 00:00:00 | 00:00:00 | |
| SQ2ODE-11 | 2026-09-06 00:43:50 | 54.51908 | 20.40875 | 270° | 15km/h | 2421m | 8.5m/s | 0°C | 0% | 0hPa | 2.2V | 00:00:00 | 00:00:00 | 00:00:00 | |
| SQ2ODE-11 | 2026-09-06 00:43:44 | 54.51894 | 20.40880 | 281° | 15km/h | 2321m | 8.6m/s | 0°C | 0% | 0hPa | 2.2V | 00:00:00 | 00:00:00 | 00:00:00 | |
| SQ2ODE-11 | 2026-09-06 00:43:38 | 54.51843 | 20.40930 | 290° | 15km/h | 2222m | 9.5m/s | 0°C | 0% | 0hPa | 2.2V | 00:00:00 | 00:00:00 | 00:00:00 | |
| AA1-15 | 2026-09-06 00:43:15 | 54.51868 | 20.41105 | 266° | 13km/h | 1979m | 8.3m/s | -52.5°C | 18.8% | 37.6hPa | 2.2V | 00:00:00 | 00:00:00 | 00:00:00 | |
| AA1-15 | 2026-09-06 00:43:12 | 54.51866 | 20.41120 | 262° | 15km/h | 1949m | 9.5m/s | -52.5°C | 18.9% | 37.7hPa | 2.2V | 00:00:00 | 00:00:00 | 00:00:00 | |
| SQ2ODE-11 | 2026-09-06 00:43:08 | 54.51870 | 20.41147 | 273° | 13km/h | 1906m | 8.1m/s | 0°C | 0% | 0hPa | 2.2V | 00:00:00 | 00:00:00 | 00:00:00 | |
| SQ2ODE-11 | 2026-09-06 00:42:55 | 54.51820 | 20.41207 | 273° | 15km/h | 1878m | 8.3m/s | 0°C | 0% | 0hPa | 2.2V | 00:00:00 | 00:00:00 | 00:00:00 | |
| SQ2ODE-11 | 2026-09-06 00:42:49 | 54.51821 | 20.41245 | 272° | 15km/h | 1823m | 8.7m/s | 0°C | 0% | 0hPa | 2.2V | 00:00:00 | 00:00:00 | 00:00:00 | |
| SQ2ODE-11 | 2026-09-06 00:42:43 | 54.51822 | 20.41290 | 274° | 13km/h | 1812m | 6.5m/s | 0°C | 0% | 0hPa | 2.2V | 00:00:00 | 00:00:00 | 00:00:00 | |
| SQ2ODE-11 | 2026-09-06 00:42:32 | 54.51887 | 20.41444 | 271° | 13km/h | 1927m | 8.0m/s | 0°C | 0% | 0hPa | 2.2V | 00:00:00 | 00:00:00 | 00:00:00 | |
| SQ2ODE-11 | 2026-09-06 00:42:26 | 54.51877 | 20.41453 | 293° | 40km/h | 1853m | 14.3m/s | 0°C | 0% | 0hPa | 2.2V | 00:00:00 | 00:00:00 | 00:00:00 | |
| SQ2ODE-11 | 2026-09-06 00:42:21 | 54.51908 | 20.41634 | 241° | 97km/h | 1796m | 9.2m/s | 0°C | 0% | 0hPa | 2.2V | 00:00:00 | 00:00:00 | 00:00:00 | |
| SQ2ODE-11 | 2026-09-06 00:42:15 | 54.52009 | 20.41800 | 208° | 91km/h | 1722m | 8.3m/s | 0°C | 0% | 0hPa | 2.2V | 00:00:00 | 00:00:00 | 00:00:00 | |
| SQ2ODE-11 | 2026-09-06 00:42:10 | 54.52122 | 20.41845 | 177° | 95km/h | 1664m | 8.3m/s | 0°C | 0% | 0hPa | 2.2V | 00:00:00 | 00:00:00 | 00:00:00 | |
| SQ2ODE-11 | 2026-09-06 00:42:05 | 54.52231 | 20.41775 | 146° | 97km/h | 1609m | 8.3m/s | 0°C | 0% | 0hPa | 2.2V | 00:00:00 | 00:00:00 | 00:00:00 | |
| SQ2ODE-11 | 2026-09-06 00:41:59 | 54.52303 | 20.41559 | 111° | 97km/h | 1550m | 8.2m/s | 0°C | 0% | 0hPa | 2.2V | 00:00:00 | 00:00:00 | 00:00:00 | |
| AA1-15 | 2026-09-06 00:41:41 | 54.78248 | 19.98064 | 0° | 0km/h | 159087m | 0m/s | -51.7°C | 19% | 40.3hPa | 2.2V | 00:00:00 | 00:00:00 | 00:00:00 | |
| AA1-15 | 2026-09-06 00:41:20 | 54.74832 | 19.95713 | 130° | 398km/h | 20893m | 67.5m/s | -51.6°C | 21.1% | 41hPa | 2.2V | 00:00:00 | 00:00:00 | 00:00:00 | |
| AA1-15 | 2026-09-06 00:41:02 | 54.68756 | 19.98259 | 0° | 0km/h | 159087m | 0m/s | -51.2°C | 20% | 41.5hPa | 2.2V | 00:00:00 | 00:00:00 | 00:00:00 | |
| AA1-15 | 2026-09-06 00:37:56 | 54.69211 | 19.99108 | 94° | 97km/h | 1448m | 7.5m/s | -51.5°C | 15.2% | 47.4hPa | 2.2V | 00:00:00 | 00:00:00 | 00:00:00 | |
| AA1-15 | 2026-09-06 00:37:53 | 54.69211 | 19.98988 | 75° | 95km/h | 1441m | 8.8m/s | -51.6°C | 15.2% | 47.5hPa | 2.2V | 00:00:00 | 00:00:00 | 00:00:00 | |
| AA1-15 | 2026-09-06 00:37:51 | 54.69206 | 19.98913 | 61° | 99km/h | 1462m | 8m/s | -51.6°C | 15.2% | 47.6hPa | 2.2V | 00:00:00 | 00:00:00 | 00:00:00 | |
| AA1-15 | 2026-09-06 00:37:42 | 54.69009 | 19.98716 | 3° | 88km/h | 1372m | 9.1m/s | -52°C | 15.4% | 47.9hPa | 2.2V | 00:00:00 | 00:00:00 | 00:00:00 | |
| AA1-15 | 2026-09-06 00:37:29 | 54.68674 | 19.98727 | 360° | 100km/h | 1307m | 7.5m/s | -52°C | 16.2% | 48.3hPa | 2.2V | 00:00:00 | 00:00:00 | 00:00:00 | |
| AA1-15 | 2026-09-06 00:37:22 | 54.68505 | 19.98713 | 25° | 99km/h | 1236m | 8.8m/s | -51.9°C | 16.6% | 48.6hPa | 2.2V | 00:00:00 | 00:00:00 | 00:00:00 | |
| AA1-15 | 2026-09-06 00:37:19 | 54.68452 | 19.98611 | 80° | 95km/h | 1201m | 8.4m/s | -51.9°C | 16.6% | 48.7hPa | 2.2V | 00:00:00 | 00:00:00 | 00:00:00 | |
| AA1-15 | 2026-09-06 00:37:13 | 54.68521 | 19.98443 | 169° | 95km/h | 1138m | 10.8m/s | -51.8°C | 16.5% | 48.9hPa | 2.2V | 00:00:00 | 00:00:00 | 00:00:00 | |
| AA1-15 | 2026-09-06 00:37:09 | 54.68595 | 19.98494 | 249° | 93km/h | 1065m | 11.6m/s | -51.6°C | 16.3% | 49hPa | 2.2V | 00:00:00 | 00:00:00 | 00:00:00 | |
| AA1-15 | 2026-09-06 00:37:07 | 54.68601 | 19.98576 | 269° | 97km/h | 1037m | 9.6m/s | -51.6°C | 16.2% | 49.1hPa | 2.2V | 00:00:00 | 00:00:00 | 00:00:00 | |
| AA1-15 | 2026-09-06 00:37:03 | 54.68602 | 19.98746 | 269° | 97km/h | 989m | 8.8m/s | -51.5°C | 15.9% | 49.2hPa | 2.2V | 00:00:00 | 00:00:00 | 00:00:00 | |
| AA1-15 | 2026-09-06 00:36:57 | 54.68570 | 19.99005 | 272° | 100km/h | 865m | 17.6m/s | -51.4°C | 15.8% | 49.4hPa | 2.2V | 00:00:00 | 00:00:00 | 00:00:00 | |
| AA1-15 | 2026-09-06 00:36:55 | 54.68057 | 19.99169 | 186° | 489km/h | 79543m | -5.5m/s | -51.3°C | 15.8% | 49.5hPa | 2.2V | 00:00:00 | 00:00:00 | 00:00:00 | |
| AA1-15 | 2026-09-06 00:36:23 | 54.85141 | 20.14292 | 275° | 15km/h | 2762m | 8.6m/s | -51.1°C | 15% | 50.7hPa | 2.2V | 00:00:00 | 00:00:00 | 00:00:00 | |
| AA1-15 | 2026-09-06 00:36:08 | 54.85099 | 20.14347 | 285° | 16km/h | 2444m | 4.8m/s | -51.1°C | 14.8% | 51.2hPa | 2.2V | 00:00:00 | 00:00:00 | 00:00:00 | |
| AA1-15 | 2026-09-06 00:35:54 | 54.85104 | 20.14428 | 273° | 16km/h | 2321m | 8.1m/s | -51°C | 15.2% | 51.7hPa | 2.2V | 00:00:00 | 00:00:00 | 00:00:00 | |
| AA1-15 | 2026-09-06 00:35:41 | 54.85163 | 20.14588 | 234° | 20km/h | 2512m | 5.9m/s | -50.7°C | 15.9% | 52.2hPa | 2.2V | 00:00:00 | 00:00:00 | 00:00:00 | |
| AA1-15 | 2026-09-06 00:35:31 | 54.85155 | 20.14673 | 281° | 15km/h | 2672m | 8.7m/s | -50.9°C | 16.3% | 52.5hPa | 2.2V | 00:00:00 | 00:00:00 | 00:00:00 | |
| AA1-15 | 2026-09-06 00:35:20 | 54.85169 | 20.14740 | 268° | 13km/h | 2548m | 8m/s | -51.1°C | 16.6% | 53hPa | 2.2V | 00:00:00 | 00:00:00 | 00:00:00 | |
| AA1-15 | 2026-09-06 00:35:09 | 54.85173 | 20.14798 | 270° | 13km/h | 2435m | 8.4m/s | -51.1°C | 16.1% | 53.3hPa | 2.2V | 00:00:00 | 00:00:00 | 00:00:00 | |
| AA1-15 | 2026-09-06 00:34:58 | 54.85145 | 20.14867 | 276° | 13km/h | 2286m | 9.2m/s | -51°C | 15.5% | 53.7hPa | 2.2V | 00:00:00 | 00:00:00 | 00:00:00 | |
| AA1-15 | 2026-09-06 00:34:44 | 54.85193 | 20.14900 | 265° | 13km/h | 2180m | 7.1m/s | -50.9°C | 14.1% | 54.2hPa | 2.2V | 00:00:00 | 00:00:00 | 00:00:00 | |
| AA1-15 | 2026-09-06 00:34:33 | 54.85203 | 20.14952 | 278° | 15km/h | 2085m | 9.8m/s | -50.7°C | 14.4% | 54.6hPa | 2.2V | 00:00:00 | 00:00:00 | 00:00:00 | |
| AA1-15 | 2026-09-06 00:34:09 | 54.85466 | 20.15391 | 164° | 99km/h | 1720m | 9.2m/s | -50.6°C | 15.1% | 55.5hPa | 2.2V | 00:00:00 | 00:00:00 | 00:00:00 | |
| AA1-15 | 2026-09-06 00:34:07 | 54.85505 | 20.15352 | 151° | 93km/h | 1688m | 8.3m/s | -50.6°C | 15.1% | 55.6hPa | 2.2V | 00:00:00 | 00:00:00 | 00:00:00 | |
| AA1-15 | 2026-09-06 00:33:59 | 54.85579 | 20.15080 | 105° | 95km/h | 1543m | 7.9m/s | -50.5°C | 15.2% | 55.8hPa | 2.2V | 00:00:00 | 00:00:00 | 00:00:00 | |
| AA1-15 | 2026-09-06 00:33:58 | 54.85580 | 20.15036 | 97° | 97km/h | 1527m | 8.9m/s | -50.5°C | 15.3% | 55.9hPa | 2.2V | 00:00:00 | 00:00:00 | 00:00:00 | |
| AA1-15 | 2026-09-06 00:33:47 | 54.85455 | 20.14560 | 30° | 97km/h | 1314m | 8.2m/s | -50.9°C | 15.1% | 56.3hPa | 2.2V | 00:00:00 | 00:00:00 | 00:00:00 | |
| AA1-15 | 2026-09-06 00:33:41 | 54.85301 | 20.14488 | 360° | 95km/h | 1228m | 7.8m/s | -51°C | 15.3% | 56.5hPa | 2.2V | 00:00:00 | 00:00:00 | 00:00:00 | |
| AA1-15 | 2026-09-06 00:33:34 | 57.55027 | 20.11693 | 0° | 0km/h | 159087m | 0m/s | -50.9°C | 15.6% | 56.8hPa | 2.2V | 00:00:00 | 00:00:00 | 00:00:00 | |
| AA1-15 | 2026-09-06 00:32:39 | 49.53537 | 38.83280 | 0° | 0km/h | 159087m | 0m/s | -50.8°C | 16.1% | 58.8hPa | 2.2V | 00:00:00 | 00:00:00 | 00:00:00 | |
| AA1-15 | 2026-09-06 00:32:21 | 49.53537 | 38.83280 | 0° | 0km/h | 159087m | 0m/s | -50.4°C | 15.8% | 59.5hPa | 2.2V | 00:00:00 | 00:00:00 | 00:00:00 | |
| AA1-15 | 2026-09-06 00:30:32 | 49.53537 | 38.83280 | 0° | 0km/h | 159087m | 0m/s | -49.5°C | 13.9% | 64.1hPa | 2.2V | 00:00:00 | 00:00:00 | 00:00:00 | |
| AA1-15 | 2026-09-06 00:30:03 | 49.53537 | 38.83280 | 0° | 0km/h | 159087m | 0m/s | -50.3°C | 14.3% | 65.4hPa | 2.2V | 00:00:00 | 00:00:00 | 00:00:00 | |
| AA1-15 | 2026-09-06 00:29:48 | 49.53537 | 38.83280 | 0° | 0km/h | 159087m | 0m/s | -50.5°C | 15.1% | 66.1hPa | 2.2V | 00:00:00 | 00:00:00 | 00:00:00 | |
| AA1-15 | 2026-09-06 00:29:36 | 49.53537 | 38.83280 | 0° | 0km/h | 159087m | 0m/s | -50.4°C | 15% | 66.5hPa | 2.2V | 00:00:00 | 00:00:00 | 00:00:00 | |
| AA1-15 | 2026-09-06 00:28:58 | 49.53537 | 38.83280 | 0° | 0km/h | 159087m | 0m/s | -51.2°C | 14.2% | 68.3hPa | 2.2V | 00:00:00 | 00:00:00 | 00:00:00 | |
| AA1-15 | 2026-09-06 00:28:44 | 49.53537 | 38.83280 | 0° | 0km/h | 159087m | 0m/s | -50.9°C | 13.9% | 68.8hPa | 2.2V | 00:00:00 | 00:00:00 | 00:00:00 | |
| AA1-15 | 2026-09-06 00:28:33 | 49.53537 | 38.83280 | 0° | 0km/h | 159087m | 0m/s | -51.1°C | 13.6% | 69.3hPa | 2.2V | 00:00:00 | 00:00:00 | 00:00:00 | |
| AA1-15 | 2026-09-06 00:28:21 | 49.53537 | 38.83280 | 0° | 0km/h | 159087m | 0m/s | -51.2°C | 13.6% | 69.9hPa | 2.2V | 00:00:00 | 00:00:00 | 00:00:00 | |
| AA1-15 | 2026-09-06 00:25:33 | 55.08265 | 19.73136 | 0° | 0km/h | 159087m | 0m/s | -50.3°C | 12.9% | 78.2hPa | 2.2V | 00:00:00 | 00:00:00 | 00:00:00 | |
| AA1-15 | 2026-09-06 00:24:59 | 55.08265 | 19.73136 | 0° | 0km/h | 159087m | 0m/s | -50.2°C | 13.5% | 79.9hPa | 2.2V | 00:00:00 | 00:00:00 | 00:00:00 | |
| AA1-15 | 2026-09-06 00:24:40 | 55.08265 | 19.73136 | 0° | 0km/h | 159087m | 0m/s | -49.7°C | 13.7% | 80.9hPa | 2.2V | 00:00:00 | 00:00:00 | 00:00:00 | |
| AA1-15 | 2026-09-06 00:24:08 | 55.08265 | 19.73136 | 0° | 0km/h | 159087m | 0m/s | -48.9°C | 14.1% | 82.8hPa | 2.2V | 00:00:00 | 00:00:00 | 00:00:00 | |
| AA1-15 | 2026-09-06 00:23:36 | 55.08265 | 19.73136 | 0° | 0km/h | 159087m | 0m/s | -47.8°C | 13.7% | 84.6hPa | 2.2V | 00:00:00 | 00:00:00 | 00:00:00 | |
| AA1-15 | 2026-09-06 00:23:26 | 55.08265 | 19.73136 | 0° | 0km/h | 159087m | 0m/s | -48.3°C | 13.6% | 85.4hPa | 2.2V | 00:00:00 | 00:00:00 | 00:00:00 | |
| AA1-15 | 2026-09-06 00:23:14 | 55.08265 | 19.73136 | 0° | 0km/h | 159087m | 0m/s | -48°C | 13.2% | 86.2hPa | 2.2V | 00:00:00 | 00:00:00 | 00:00:00 | |
| AA1-15 | 2026-09-06 00:23:03 | 55.08265 | 19.73136 | 0° | 0km/h | 159087m | 0m/s | -47.8°C | 12.7% | 86.8hPa | 2.2V | 00:00:00 | 00:00:00 | 00:00:00 | |
| AA1-15 | 2026-09-06 00:22:51 | 55.08265 | 19.73136 | 0° | 0km/h | 159087m | 0m/s | -47.3°C | 13.2% | 87.7hPa | 2.2V | 00:00:00 | 00:00:00 | 00:00:00 | |
| AA1-15 | 2026-09-06 00:22:40 | 55.08265 | 19.73136 | 0° | 0km/h | 159087m | 0m/s | -46.9°C | 13.9% | 88.4hPa | 2.2V | 00:00:00 | 00:00:00 | 00:00:00 | |
| AA1-15 | 2026-09-06 00:22:19 | 55.08265 | 19.73136 | 0° | 0km/h | 159087m | 0m/s | -46.1°C | 14.8% | 89.7hPa | 2.2V | 00:00:00 | 00:00:00 | 00:00:00 | |
| AA1-15 | 2026-09-06 00:22:07 | 55.08265 | 19.73136 | 0° | 0km/h | 159087m | 0m/s | -46.5°C | 14.3% | 90.5hPa | 2.2V | 00:00:00 | 00:00:00 | 00:00:00 | |
| AA1-15 | 2026-09-06 00:21:57 | 55.08265 | 19.73136 | 0° | 0km/h | 159087m | 0m/s | -46.9°C | 13.7% | 91hPa | 2.2V | 00:00:00 | 00:00:00 | 00:00:00 | |
| AA1-15 | 2026-09-06 00:21:00 | 55.08265 | 19.73136 | 0° | 0km/h | 159087m | 0m/s | -48.3°C | 13.3% | 94.5hPa | 2.2V | 00:00:00 | 00:00:00 | 00:00:00 |